Time;durP1;ratioP1;P1;durP2;ratioP2;P2;SDS_P1;SDS_P2;PMS_P1;PMS_P2;Temp;Humidity;BMP_temperature;BMP_pressure;BME280_temperature;BME280_humidity;BME280_pressure;Samples;Min_cycle;Max_cycle;Signal;HPM_P1;HPM_P2
2023/01/15 00:02:32;;;;;;;2.23;0.73;;;10.30;99.90;;;;;;5050017;28;20224;-32
2023/01/15 00:05:01;;;;;;;4.17;0.90;;;10.30;99.90;;;;;;5049606;28;20564;-32
2023/01/15 00:07:32;;;;;;;1.70;0.60;;;10.30;99.90;;;;;;5049811;28;20682;-32
2023/01/15 00:10:01;;;;;;;2.67;0.60;;;10.30;99.90;;;;;;5049672;28;20620;-32
2023/01/15 00:12:31;;;;;;;3.47;0.70;;;10.30;99.90;;;;;;5050352;28;20275;-32
2023/01/15 00:14:58;;;;;;;3.40;0.87;;;10.30;99.90;;;;;;5049867;28;20254;-32
2023/01/15 00:17:25;;;;;;;1.83;0.70;;;10.30;99.90;;;;;;5049422;28;20224;-32
2023/01/15 00:19:54;;;;;;;3.37;0.63;;;10.30;99.90;;;;;;5049750;28;20203;-32
2023/01/15 00:22:22;;;;;;;3.57;0.97;;;10.30;99.90;;;;;;5049176;28;20220;-32
2023/01/15 00:27:40;;;;;;;5.23;1.17;;;10.30;99.90;;;;;;5049565;28;20204;-32
2023/01/15 00:30:11;;;;;;;4.37;0.70;;;10.30;99.90;;;;;;5049493;28;20219;-32
2023/01/15 00:32:42;;;;;;;1.57;0.60;;;10.30;99.90;;;;;;5049168;28;20619;-32
2023/01/15 00:35:18;;;;;;;2.67;0.60;;;10.30;99.90;;;;;;5049295;28;20208;-32
2023/01/15 00:37:46;;;;;;;5.90;1.23;;;10.40;99.90;;;;;;5049594;28;20281;-32
2023/01/15 00:40:17;;;;;;;4.50;0.90;;;10.30;99.90;;;;;;5049369;28;20216;-32
2023/01/15 00:42:45;;;;;;;6.27;1.40;;;10.40;99.90;;;;;;5047801;28;20246;-32
2023/01/15 00:45:21;;;;;;;4.17;0.83;;;10.30;99.90;;;;;;5047906;28;20273;-32
2023/01/15 00:47:49;;;;;;;6.47;1.10;;;10.40;99.90;;;;;;5049521;28;20303;-32
2023/01/15 00:50:22;;;;;;;6.77;1.23;;;10.30;99.90;;;;;;5047853;28;20196;-32
2023/01/15 00:52:51;;;;;;;6.13;1.40;;;10.40;99.90;;;;;;5048701;28;20263;-32
2023/01/15 00:55:18;;;;;;;5.53;1.20;;;10.40;99.90;;;;;;5049008;28;20208;-32
2023/01/15 00:57:50;;;;;;;6.53;1.30;;;10.40;99.90;;;;;;5049207;28;20714;-32
2023/01/15 01:00:17;;;;;;;4.60;1.30;;;10.40;99.90;;;;;;5049178;28;20204;-33
2023/01/15 01:02:44;;;;;;;8.47;1.73;;;10.40;99.90;;;;;;5048464;28;20703;-30
2023/01/15 01:05:16;;;;;;;7.63;1.33;;;10.40;99.90;;;;;;5048560;28;20212;-30
2023/01/15 01:07:44;;;;;;;10.00;1.90;;;10.40;99.90;;;;;;5046965;28;20246;-30
2023/01/15 01:10:11;;;;;;;8.43;1.40;;;10.40;99.90;;;;;;5048389;28;20224;-30
2023/01/15 01:12:38;;;;;;;4.23;1.17;;;10.40;99.90;;;;;;5047208;28;20248;-30
2023/01/15 01:15:06;;;;;;;6.10;1.40;;;10.40;99.90;;;;;;5048790;28;20648;-30
2023/01/15 01:17:37;;;;;;;9.40;1.77;;;10.30;99.90;;;;;;5048633;28;20200;-30
2023/01/15 01:20:05;;;;;;;7.37;1.40;;;10.40;99.90;;;;;;5048937;28;20246;-30
2023/01/15 01:22:35;;;;;;;9.30;1.57;;;10.30;99.90;;;;;;5046707;28;20228;-30
2023/01/15 01:25:03;;;;;;;9.10;1.67;;;10.40;99.90;;;;;;5030278;28;20254;-30
2023/01/15 01:27:32;;;;;;;8.70;1.80;;;10.40;99.90;;;;;;5048090;28;20204;-30
2023/01/15 01:29:59;;;;;;;7.30;1.60;;;10.40;99.90;;;;;;5048219;28;20200;-30
2023/01/15 01:32:29;;;;;;;6.67;1.50;;;10.40;99.90;;;;;;5047930;28;20216;-31
2023/01/15 01:34:56;;;;;;;8.63;1.60;;;10.30;99.90;;;;;;5048388;28;20206;-31
2023/01/15 01:37:26;;;;;;;3.87;1.10;;;10.30;99.90;;;;;;5046720;28;20197;-30
2023/01/15 01:39:55;;;;;;;7.67;1.40;;;10.30;99.90;;;;;;5048059;28;20263;-30
2023/01/15 01:42:22;;;;;;;9.47;1.77;;;10.30;99.90;;;;;;5048180;28;20678;-31
2023/01/15 01:44:50;;;;;;;11.33;1.53;;;10.30;99.90;;;;;;5048127;28;20220;-32
2023/01/15 01:47:22;;;;;;;6.70;1.50;;;10.30;99.90;;;;;;5048139;28;20661;-32
2023/01/15 01:49:56;;;;;;;9.57;1.73;;;10.30;99.90;;;;;;5047801;28;20273;-33
2023/01/15 01:52:30;;;;;;;5.77;1.37;;;10.30;99.90;;;;;;5047593;28;20231;-32
2023/01/15 01:54:59;;;;;;;9.83;1.70;;;10.30;99.90;;;;;;5047893;28;20679;-32
2023/01/15 01:57:29;;;;;;;8.40;1.73;;;10.20;99.90;;;;;;5047936;28;20254;-32
2023/01/15 01:59:58;;;;;;;6.17;1.27;;;10.20;99.90;;;;;;5047368;28;21021;-32
2023/01/15 02:02:28;;;;;;;7.07;1.77;;;10.20;99.90;;;;;;5045956;28;20192;-33
2023/01/15 02:04:58;;;;;;;6.30;1.23;;;10.30;99.90;;;;;;5066002;28;20211;-33
2023/01/15 02:07:26;;;;;;;8.63;1.67;;;10.20;99.90;;;;;;5062861;28;20291;-32
2023/01/15 02:09:53;;;;;;;10.43;1.70;;;10.30;99.90;;;;;;5047440;28;20197;-32
2023/01/15 02:12:31;;;;;;;9.57;1.40;;;10.30;99.90;;;;;;5047185;28;20208;-33
2023/01/15 02:15:10;;;;;;;8.70;1.47;;;10.30;99.90;;;;;;5046701;28;20212;-33
2023/01/15 02:17:43;;;;;;;5.47;1.43;;;10.30;99.90;;;;;;5047531;28;20249;-32
2023/01/15 02:20:22;;;;;;;6.83;1.27;;;10.30;99.90;;;;;;5064490;28;20350;-33
2023/01/15 02:23:08;;;;;;;8.23;1.77;;;10.30;99.90;;;;;;5054372;28;20258;-33
2023/01/15 02:26:06;;;;;;;5.27;1.27;;;10.30;99.90;;;;;;5047092;28;20283;-33
2023/01/15 02:28:37;;;;;;;6.13;1.47;;;10.30;99.90;;;;;;5047161;28;20204;-33
2023/01/15 02:31:30;;;;;;;7.30;1.70;;;10.30;99.90;;;;;;5047082;28;20197;-33
2023/01/15 02:34:02;;;;;;;8.43;1.77;;;10.30;99.90;;;;;;5047149;28;20204;-33
2023/01/15 02:36:34;;;;;;;8.60;1.43;;;10.30;99.90;;;;;;5045676;28;20679;-33
2023/01/15 02:39:05;;;;;;;8.00;1.40;;;10.30;99.90;;;;;;5046886;28;20243;-33
2023/01/15 02:41:40;;;;;;;6.43;1.20;;;10.30;99.90;;;;;;5045431;28;20261;-33
2023/01/15 02:44:18;;;;;;;7.27;1.83;;;10.30;99.90;;;;;;5046807;28;20483;-33
2023/01/15 02:46:47;;;;;;;5.23;1.50;;;10.30;99.90;;;;;;5046891;28;20196;-33
2023/01/15 02:49:19;;;;;;;6.63;1.77;;;10.20;99.90;;;;;;5045649;28;20196;-33
2023/01/15 02:52:02;;;;;;;7.33;1.50;;;10.20;99.90;;;;;;5046635;28;20258;-33
2023/01/15 02:54:35;;;;;;;10.43;1.60;;;10.20;99.90;;;;;;5046542;28;20212;-33
2023/01/15 02:57:08;;;;;;;7.57;1.40;;;10.10;99.90;;;;;;5045397;28;20207;-32
2023/01/15 02:59:46;;;;;;;6.20;1.30;;;10.10;99.90;;;;;;5044800;28;20196;-33
2023/01/15 03:02:21;;;;;;;9.37;2.00;;;10.10;99.90;;;;;;5046412;28;20216;-33
2023/01/15 03:04:57;;;;;;;7.50;1.57;;;10.10;99.90;;;;;;5046371;28;20226;-32
2023/01/15 03:07:31;;;;;;;7.03;1.13;;;10.10;99.90;;;;;;5046479;28;20245;-33
2023/01/15 03:09:58;;;;;;;3.60;1.03;;;10.10;99.90;;;;;;5044915;28;20655;-33
2023/01/15 03:12:31;;;;;;;7.97;1.17;;;10.10;99.90;;;;;;5045778;28;20231;-33
2023/01/15 03:15:01;;;;;;;7.87;1.80;;;10.10;99.90;;;;;;5046153;28;20196;-32
2023/01/15 03:17:52;;;;;;;5.70;1.30;;;10.00;99.90;;;;;;5046324;28;20266;-33
2023/01/15 03:20:25;;;;;;;7.97;1.77;;;10.00;99.90;;;;;;5046558;28;20208;-33
2023/01/15 03:23:02;;;;;;;8.83;1.37;;;10.00;99.90;;;;;;5044491;28;20667;-33
2023/01/15 03:25:44;;;;;;;6.07;1.30;;;10.00;99.90;;;;;;5046660;28;20211;-32
2023/01/15 03:28:18;;;;;;;7.27;1.60;;;10.00;99.90;;;;;;5046327;28;20257;-33
2023/01/15 03:30:45;;;;;;;6.43;1.23;;;10.00;99.90;;;;;;5046122;28;20196;-33
2023/01/15 03:33:14;;;;;;;7.53;1.60;;;10.00;99.90;;;;;;5046024;28;20208;-33
2023/01/15 03:35:49;;;;;;;8.03;1.30;;;10.00;99.90;;;;;;5045889;28;20207;-33
2023/01/15 03:38:22;;;;;;;8.13;1.33;;;10.00;99.90;;;;;;5045829;28;20215;-32
2023/01/15 03:41:29;;;;;;;10.27;1.93;;;9.90;99.90;;;;;;5045715;28;20507;-32
2023/01/15 03:44:20;;;;;;;4.77;1.63;;;10.00;99.90;;;;;;5045533;28;20212;-32
2023/01/15 03:46:57;;;;;;;8.97;1.33;;;9.90;99.90;;;;;;5045498;28;20991;-33
2023/01/15 03:50:00;;;;;;;12.50;1.53;;;9.90;99.90;;;;;;5045705;28;20196;-32
2023/01/15 03:52:40;;;;;;;8.03;1.40;;;9.90;99.90;;;;;;5062209;28;20726;-32
2023/01/15 03:55:21;;;;;;;4.07;1.13;;;9.90;99.90;;;;;;5047655;28;20713;-32
2023/01/15 03:58:01;;;;;;;6.73;1.10;;;9.90;99.90;;;;;;5046107;28;20214;-32
2023/01/15 04:00:59;;;;;;;7.50;1.37;;;9.90;99.90;;;;;;5045807;28;20249;-32
2023/01/15 04:03:33;;;;;;;2.63;0.73;;;9.80;99.90;;;;;;5043960;28;20220;-32
2023/01/15 04:06:02;;;;;;;6.20;1.30;;;9.80;99.90;;;;;;5045368;28;20203;-32
2023/01/15 04:08:37;;;;;;;6.23;1.30;;;9.80;99.90;;;;;;5043792;28;20679;-32
2023/01/15 04:11:04;;;;;;;6.53;1.00;;;9.80;99.90;;;;;;5045315;28;20243;-32
2023/01/15 04:13:34;;;;;;;8.07;1.37;;;9.80;99.90;;;;;;5045193;28;20211;-31
2023/01/15 04:16:01;;;;;;;7.90;1.47;;;9.80;99.90;;;;;;5045786;28;20566;-32
2023/01/15 04:18:31;;;;;;;6.40;1.40;;;9.80;99.90;;;;;;5043787;28;20250;-32
2023/01/15 04:21:00;;;;;;;7.53;1.37;;;9.80;99.90;;;;;;5045041;28;20295;-32
2023/01/15 04:23:33;;;;;;;8.20;1.10;;;9.80;99.90;;;;;;5047128;28;20231;-31
2023/01/15 04:26:00;;;;;;;8.37;1.87;;;9.80;99.90;;;;;;5048995;28;20291;-32
2023/01/15 04:28:28;;;;;;;6.93;1.37;;;9.70;99.90;;;;;;5049051;28;20228;-31
2023/01/15 04:30:56;;;;;;;9.73;1.43;;;9.70;99.90;;;;;;5048964;28;20242;-32
2023/01/15 04:33:24;;;;;;;9.23;1.30;;;9.70;99.90;;;;;;5049406;28;20617;-31
2023/01/15 04:35:53;;;;;;;4.37;1.37;;;9.70;99.90;;;;;;5048876;28;20637;-30
2023/01/15 04:38:23;;;;;;;8.10;1.43;;;9.70;99.90;;;;;;5048862;28;20258;-32
2023/01/15 04:46:22;;;;;;;6.87;1.17;;;9.70;99.90;;;;;;5049102;28;20949;-32
2023/01/15 04:48:52;;;;;;;4.43;0.97;;;9.60;99.90;;;;;;5048678;28;20713;-32
2023/01/15 04:51:19;;;;;;;7.80;1.30;;;9.60;99.90;;;;;;5046769;28;20644;-31
2023/01/15 04:53:52;;;;;;;5.83;1.07;;;9.60;99.90;;;;;;5048535;28;20699;-32
2023/01/15 04:56:22;;;;;;;8.73;1.40;;;9.60;99.90;;;;;;5031026;28;20314;-31
2023/01/15 04:58:51;;;;;;;10.47;1.17;;;9.60;99.90;;;;;;5048149;28;20204;-32
2023/01/15 05:01:18;;;;;;;6.33;1.10;;;9.50;99.90;;;;;;5048625;28;20558;-32
2023/01/15 05:03:46;;;;;;;5.97;1.50;;;9.50;99.90;;;;;;5046665;28;21135;-32
2023/01/15 05:06:13;;;;;;;6.87;1.17;;;9.50;99.90;;;;;;5048433;28;20246;-32
2023/01/15 05:08:41;;;;;;;5.73;1.27;;;9.40;99.90;;;;;;5048208;28;20312;-32
2023/01/15 05:11:11;;;;;;;7.33;1.30;;;9.40;99.90;;;;;;5047979;28;20274;-32
2023/01/15 05:13:41;;;;;;;8.60;1.57;;;9.40;99.90;;;;;;5046807;28;20216;-31
2023/01/15 05:16:27;;;;;;;5.90;1.00;;;9.40;99.90;;;;;;5047015;28;20196;-31
2023/01/15 05:18:58;;;;;;;7.03;0.90;;;9.40;99.90;;;;;;5046888;28;20236;-32
2023/01/15 05:21:33;;;;;;;7.57;1.10;;;9.40;99.90;;;;;;5048266;28;20215;-31
2023/01/15 05:24:05;;;;;;;5.93;1.10;;;9.40;99.90;;;;;;5047044;28;20282;-32
2023/01/15 05:26:34;;;;;;;4.93;1.07;;;9.40;99.90;;;;;;5047311;28;20245;-31
2023/01/15 05:29:06;;;;;;;4.10;1.23;;;9.40;99.90;;;;;;5048387;28;20861;-32
2023/01/15 05:31:33;;;;;;;8.10;1.20;;;9.30;99.90;;;;;;5048557;28;20816;-31
2023/01/15 05:34:01;;;;;;;5.47;1.00;;;9.30;99.90;;;;;;5047446;28;20274;-32
2023/01/15 05:36:34;;;;;;;4.80;0.80;;;9.30;99.90;;;;;;5048435;28;20601;-31
2023/01/15 05:39:01;;;;;;;5.43;0.90;;;9.30;99.90;;;;;;5048134;28;20270;-31
2023/01/15 05:41:49;;;;;;;5.20;1.03;;;9.30;99.90;;;;;;5048767;28;20224;-32
2023/01/15 05:44:31;;;;;;;5.43;0.90;;;9.30;99.90;;;;;;5048035;28;20297;-32
2023/01/15 05:47:06;;;;;;;4.00;0.97;;;9.30;99.90;;;;;;5048198;28;20223;-32
2023/01/15 05:49:34;;;;;;;6.63;0.80;;;9.20;99.90;;;;;;5048417;28;20588;-32
2023/01/15 05:52:07;;;;;;;5.40;0.80;;;9.30;99.90;;;;;;5047983;28;20691;-32
2023/01/15 05:54:34;;;;;;;6.57;1.00;;;9.30;99.90;;;;;;5047932;28;20204;-32
2023/01/15 05:57:03;;;;;;;7.63;0.80;;;9.30;99.90;;;;;;5046149;28;20684;-32
2023/01/15 05:59:31;;;;;;;5.53;0.80;;;9.20;99.90;;;;;;5047774;28;20629;-32
2023/01/15 06:01:59;;;;;;;4.93;1.10;;;9.20;99.90;;;;;;5047938;28;20229;-32
2023/01/15 06:04:28;;;;;;;5.07;0.90;;;9.10;99.90;;;;;;5046331;28;20228;-32
2023/01/15 06:06:57;;;;;;;4.77;0.67;;;9.10;99.90;;;;;;5047899;28;20595;-32
2023/01/15 06:09:26;;;;;;;2.43;0.70;;;9.10;99.90;;;;;;5047584;28;20204;-32
2023/01/15 06:11:56;;;;;;;3.07;0.93;;;9.00;99.90;;;;;;5047365;28;20196;-32
2023/01/15 06:14:24;;;;;;;2.97;0.80;;;9.00;99.90;;;;;;5047544;28;20575;-32
2023/01/15 06:16:51;;;;;;;2.63;0.60;;;9.00;99.90;;;;;;5045875;28;20201;-32
2023/01/15 06:19:18;;;;;;;4.93;0.87;;;9.00;99.90;;;;;;5047574;28;20549;-32
2023/01/15 06:21:46;;;;;;;3.97;0.83;;;9.00;99.90;;;;;;5047224;28;20220;-32
2023/01/15 06:24:15;;;;;;;7.30;0.97;;;9.00;99.90;;;;;;5047160;28;20252;-32
2023/01/15 06:26:45;;;;;;;3.97;0.90;;;9.00;99.90;;;;;;5047256;28;20258;-32
2023/01/15 06:29:16;;;;;;;2.57;0.70;;;8.90;99.90;;;;;;5047837;28;20217;-32
2023/01/15 06:31:46;;;;;;;1.53;0.50;;;8.90;99.90;;;;;;5047333;28;20630;-31
2023/01/15 06:34:14;;;;;;;2.30;0.57;;;8.90;99.90;;;;;;5046968;28;20204;-32
2023/01/15 06:36:41;;;;;;;3.63;0.60;;;8.80;99.90;;;;;;5046943;28;20199;-32
2023/01/15 06:39:11;;;;;;;2.43;0.70;;;8.80;99.90;;;;;;5045515;28;20208;-32
2023/01/15 06:47:24;;;;;;;0.93;0.40;;;8.80;99.90;;;;;;5046902;28;20192;-31
2023/01/15 06:49:54;;;;;;;2.70;0.60;;;8.70;99.90;;;;;;5046941;28;20265;-31
2023/01/15 06:52:23;;;;;;;2.47;0.60;;;8.60;99.90;;;;;;5046422;28;20240;-32
2023/01/15 06:54:54;;;;;;;1.90;0.40;;;8.60;99.90;;;;;;5046557;28;20247;-32
2023/01/15 06:57:24;;;;;;;2.00;0.50;;;8.60;99.90;;;;;;5046618;28;20216;-33
2023/01/15 06:59:51;;;;;;;2.33;0.57;;;8.60;99.90;;;;;;5046481;28;20766;-32
2023/01/15 07:02:23;;;;;;;2.17;0.60;;;8.50;99.90;;;;;;5046687;28;20224;-32
2023/01/15 07:04:53;;;;;;;4.17;0.67;;;8.50;99.90;;;;;;5046644;28;20236;-32
2023/01/15 07:07:23;;;;;;;2.13;0.60;;;8.40;99.90;;;;;;5046499;28;20227;-32
2023/01/15 07:09:50;;;;;;;6.60;0.70;;;8.40;99.90;;;;;;5045176;28;20255;-31
2023/01/15 07:12:17;;;;;;;4.10;0.70;;;8.40;99.90;;;;;;5045983;28;20192;-32
2023/01/15 07:14:49;;;;;;;2.87;0.73;;;8.30;99.90;;;;;;5046086;28;20270;-31
2023/01/15 07:17:17;;;;;;;4.63;1.00;;;8.30;99.90;;;;;;5046476;28;20238;-34
2023/01/15 07:19:46;;;;;;;5.30;0.80;;;8.30;99.90;;;;;;5045237;28;20226;-32
2023/01/15 07:22:16;;;;;;;7.17;1.83;;;8.30;99.90;;;;;;5046320;28;20204;-31
2023/01/15 07:24:43;;;;;;;3.50;0.80;;;8.30;99.90;;;;;;5046185;28;20270;-32
2023/01/15 07:27:15;;;;;;;3.27;1.00;;;8.30;99.90;;;;;;5044365;28;20287;-32
2023/01/15 07:29:51;;;;;;;4.33;0.97;;;8.20;99.90;;;;;;5046720;28;20258;-31
2023/01/15 07:32:20;;;;;;;5.43;0.93;;;8.20;99.90;;;;;;5044797;28;20202;-31
2023/01/15 07:34:48;;;;;;;4.00;0.93;;;8.20;99.90;;;;;;5046085;28;20230;-32
2023/01/15 07:37:15;;;;;;;4.50;0.90;;;8.20;99.90;;;;;;5046086;28;20712;-31
2023/01/15 07:39:44;;;;;;;5.87;1.00;;;8.10;99.90;;;;;;5044685;28;20230;-32
2023/01/15 07:50:54;;;;;;;4.47;1.00;;;8.10;99.90;;;;;;5045614;28;20595;-32
2023/01/15 07:53:24;;;;;;;5.77;1.00;;;8.10;99.90;;;;;;5045835;28;20653;-32
2023/01/15 07:55:53;;;;;;;4.20;1.03;;;8.10;99.90;;;;;;5043835;28;20434;-32
2023/01/15 07:58:25;;;;;;;4.73;0.70;;;8.10;99.90;;;;;;5047451;28;20208;-32
2023/01/15 08:00:52;;;;;;;5.10;1.47;;;8.10;99.90;;;;;;5049326;28;20200;-32
2023/01/15 08:03:22;;;;;;;5.30;0.80;;;8.10;99.90;;;;;;5049400;28;20208;-32
2023/01/15 08:05:51;;;;;;;6.13;1.53;;;8.10;99.90;;;;;;5047811;28;20236;-31
2023/01/15 08:08:18;;;;;;;4.20;0.90;;;8.10;99.90;;;;;;5049107;28;20597;-32
2023/01/15 08:16:19;;;;;;;7.93;1.07;;;8.00;99.90;;;;;;5049421;28;20209;-31
2023/01/15 08:18:46;;;;;;;5.60;1.47;;;8.00;99.90;;;;;;5049160;28;20212;-32
2023/01/15 08:21:14;;;;;;;7.73;1.33;;;8.00;99.90;;;;;;5049260;28;20200;-32
2023/01/15 08:23:44;;;;;;;5.07;1.10;;;8.00;99.90;;;;;;5048889;28;20269;-31
2023/01/15 08:26:12;;;;;;;8.77;1.50;;;8.00;99.90;;;;;;5047365;28;20251;-32
2023/01/15 08:28:42;;;;;;;10.23;1.30;;;8.00;99.90;;;;;;5048850;28;20204;-32
2023/01/15 08:31:12;;;;;;;11.33;1.53;;;8.00;99.90;;;;;;5049036;28;20200;-31
2023/01/15 08:33:41;;;;;;;5.90;1.00;;;8.00;99.90;;;;;;5049210;28;20204;-31
2023/01/15 08:36:11;;;;;;;6.43;1.50;;;8.00;99.90;;;;;;5048756;28;20688;-31
2023/01/15 08:38:38;;;;;;;7.23;1.10;;;8.00;99.90;;;;;;5048877;28;20626;-32
2023/01/15 08:41:08;;;;;;;6.60;1.40;;;7.90;99.90;;;;;;5049121;28;20220;-31
2023/01/15 08:43:37;;;;;;;7.37;1.20;;;8.00;99.90;;;;;;5048968;28;20238;-32
2023/01/15 08:46:06;;;;;;;6.80;1.30;;;8.00;99.90;;;;;;5048277;28;20220;-31
2023/01/15 08:48:34;;;;;;;4.10;0.90;;;8.00;99.90;;;;;;5048651;28;20215;-32
2023/01/15 08:51:05;;;;;;;5.17;1.20;;;8.00;99.90;;;;;;5048475;28;20192;-32
2023/01/15 08:53:35;;;;;;;9.03;2.30;;;8.00;99.90;;;;;;5048465;28;20341;-31
2023/01/15 08:56:10;;;;;;;9.07;1.27;;;8.00;99.90;;;;;;5046864;28;20207;-32
2023/01/15 08:58:40;;;;;;;4.30;0.90;;;8.00;99.90;;;;;;5048436;28;20227;-32
2023/01/15 09:01:10;;;;;;;5.67;1.23;;;8.00;99.90;;;;;;5048383;28;20558;-32
2023/01/15 09:03:37;;;;;;;10.10;1.60;;;8.10;99.90;;;;;;5047963;28;20705;-31
2023/01/15 09:06:05;;;;;;;6.20;1.37;;;8.10;99.90;;;;;;5048180;28;20345;-32
2023/01/15 09:08:34;;;;;;;5.60;1.50;;;8.00;99.90;;;;;;5047682;28;20839;-32
2023/01/15 09:11:03;;;;;;;8.40;1.93;;;8.00;99.90;;;;;;5047125;28;20670;-33
2023/01/15 09:13:35;;;;;;;7.77;1.10;;;8.10;99.90;;;;;;5048374;28;20341;-34
2023/01/15 09:16:04;;;;;;;6.77;1.50;;;8.10;99.90;;;;;;5047862;28;20330;-34
2023/01/15 09:18:33;;;;;;;6.87;1.13;;;8.10;99.90;;;;;;5048043;28;20585;-34
2023/01/15 09:21:02;;;;;;;5.43;1.53;;;8.00;99.90;;;;;;5046710;28;20674;-33
2023/01/15 09:23:32;;;;;;;5.17;1.30;;;8.00;99.90;;;;;;5046427;28;20682;-33
2023/01/15 09:26:07;;;;;;;7.47;1.67;;;8.10;99.90;;;;;;5047719;28;20246;-33
2023/01/15 09:28:37;;;;;;;5.03;0.97;;;8.10;99.90;;;;;;5046349;28;20291;-33
2023/01/15 09:31:04;;;;;;;6.27;1.27;;;8.10;99.90;;;;;;5046558;28;20224;-33
2023/01/15 09:33:31;;;;;;;6.93;1.40;;;8.10;99.90;;;;;;5047804;28;20188;-33
2023/01/15 09:35:59;;;;;;;6.67;1.10;;;8.10;99.90;;;;;;5047718;28;20697;-33
2023/01/15 09:38:28;;;;;;;4.77;1.10;;;8.10;99.90;;;;;;5047515;28;20307;-33
2023/01/15 09:42:03;;;;;;;7.33;1.53;;;8.00;99.90;;;;;;5046278;28;20200;-33
2023/01/15 09:44:30;;;;;;;6.57;1.40;;;8.10;99.90;;;;;;5047411;28;20630;-33
2023/01/15 09:47:50;;;;;;;3.53;1.00;;;8.10;99.90;;;;;;5048116;28;20207;-34
2023/01/15 09:50:27;;;;;;;4.80;1.03;;;8.10;99.90;;;;;;5064387;28;20629;-33
2023/01/15 09:53:04;;;;;;;3.43;1.10;;;8.10;99.90;;;;;;5047433;28;20235;-31
2023/01/15 09:55:44;;;;;;;3.40;0.77;;;8.10;99.90;;;;;;5047337;28;20365;-30
2023/01/15 09:58:13;;;;;;;6.67;0.93;;;8.20;99.90;;;;;;5047386;28;20657;-31
2023/01/15 10:00:45;;;;;;;4.50;0.90;;;8.20;99.90;;;;;;5047219;28;20660;-30
2023/01/15 10:03:31;;;;;;;5.67;0.80;;;8.20;99.90;;;;;;5047357;28;20196;-31
2023/01/15 10:06:07;;;;;;;4.87;0.90;;;8.20;99.90;;;;;;5047197;28;20224;-31
2023/01/15 10:08:41;;;;;;;4.17;0.70;;;8.20;99.90;;;;;;5047022;28;20254;-32
2023/01/15 10:11:15;;;;;;;3.17;1.00;;;8.20;99.90;;;;;;5046854;28;20239;-32
2023/01/15 10:13:51;;;;;;;3.00;0.70;;;8.30;99.90;;;;;;5047026;28;20200;-31
2023/01/15 10:16:30;;;;;;;4.73;0.60;;;8.30;99.90;;;;;;5046949;28;20250;-31
2023/01/15 10:19:03;;;;;;;6.53;1.20;;;8.30;99.90;;;;;;5047201;28;20573;-31
2023/01/15 10:21:57;;;;;;;6.73;1.10;;;8.30;99.90;;;;;;5046333;28;20188;-31
2023/01/15 10:24:41;;;;;;;3.97;0.80;;;8.30;99.90;;;;;;5046463;28;20262;-31
2023/01/15 10:27:23;;;;;;;5.70;0.90;;;8.30;99.90;;;;;;5046770;28;20199;-32
2023/01/15 10:30:13;;;;;;;5.43;1.43;;;8.30;99.90;;;;;;5047025;28;20487;-32
2023/01/15 10:32:47;;;;;;;2.93;0.60;;;8.30;99.90;;;;;;5046844;28;20709;-32
2023/01/15 10:35:55;;;;;;;3.57;0.70;;;8.30;99.90;;;;;;5046392;28;20253;-32
2023/01/15 10:38:32;;;;;;;2.47;0.60;;;8.20;99.90;;;;;;5046207;28;20219;-32
2023/01/15 10:41:08;;;;;;;1.83;0.70;;;8.20;99.90;;;;;;5046439;28;20839;-32
2023/01/15 10:44:04;;;;;;;5.80;1.10;;;8.20;99.90;;;;;;5046296;28;20239;-32
2023/01/15 10:46:37;;;;;;;2.67;0.80;;;8.20;99.90;;;;;;5046768;28;20247;-32
2023/01/15 10:49:15;;;;;;;4.67;0.87;;;8.20;99.90;;;;;;5046469;28;20236;-32
2023/01/15 10:51:42;;;;;;;2.40;0.67;;;8.20;99.90;;;;;;5045720;28;20239;-32
2023/01/15 10:54:29;;;;;;;2.83;0.70;;;8.10;99.90;;;;;;5046540;28;20639;-32
2023/01/15 10:57:17;;;;;;;4.70;0.60;;;8.10;99.90;;;;;;5046382;28;20196;-32
2023/01/15 10:59:49;;;;;;;4.10;1.23;;;8.10;99.90;;;;;;5046652;28;20208;-32
2023/01/15 11:02:44;;;;;;;1.70;0.53;;;8.20;99.90;;;;;;5046074;28;20744;-31
2023/01/15 11:05:20;;;;;;;3.77;0.90;;;8.20;99.90;;;;;;5046044;28;20307;-32
2023/01/15 11:07:52;;;;;;;5.07;1.10;;;8.30;99.90;;;;;;5046221;28;20196;-32
2023/01/15 11:10:40;;;;;;;4.07;0.50;;;8.30;99.90;;;;;;5045718;28;20208;-32
2023/01/15 11:21:52;;;;;;;6.07;0.83;;;8.40;99.90;;;;;;5045835;28;20549;-33
2023/01/15 11:24:19;;;;;;;4.43;0.90;;;8.30;99.90;;;;;;5045853;28;20287;-33
2023/01/15 11:26:54;;;;;;;5.23;0.97;;;8.40;99.90;;;;;;5045798;28;20220;-33
2023/01/15 11:29:35;;;;;;;4.23;1.00;;;8.40;99.90;;;;;;5045925;28;20266;-33
2023/01/15 11:32:20;;;;;;;9.20;1.03;;;8.50;99.90;;;;;;5044794;28;20399;-33
2023/01/15 11:34:55;;;;;;;6.57;1.00;;;8.50;99.90;;;;;;5045914;28;20196;-32
2023/01/15 11:37:23;;;;;;;2.80;1.07;;;8.60;99.90;;;;;;5045739;28;20223;-33
2023/01/15 11:40:02;;;;;;;4.53;0.80;;;8.70;99.90;;;;;;5045447;28;20206;-32
2023/01/15 11:51:08;;;;;;;3.87;1.17;;;8.70;99.90;;;;;;5045625;28;20192;-32
2023/01/15 11:53:40;;;;;;;5.90;1.07;;;8.70;99.90;;;;;;5044133;28;20202;-32
2023/01/15 11:56:12;;;;;;;6.03;1.20;;;8.80;99.90;;;;;;5045232;28;20265;-33
2023/01/15 11:58:52;;;;;;;3.83;0.90;;;8.80;99.90;;;;;;5045270;28;20204;-33
2023/01/15 12:01:29;;;;;;;5.03;1.33;;;8.90;99.90;;;;;;5045532;28;20200;-32
2023/01/15 12:04:02;;;;;;;4.30;1.00;;;9.00;99.90;;;;;;5045900;28;20243;-33
2023/01/15 12:06:34;;;;;;;6.10;1.30;;;9.00;99.90;;;;;;5045937;28;20277;-33
2023/01/15 12:09:16;;;;;;;3.43;1.00;;;8.90;99.90;;;;;;5046136;28;20261;-32
2023/01/15 12:12:06;;;;;;;4.57;1.00;;;9.00;99.90;;;;;;5045973;28;20640;-33
2023/01/15 12:15:12;;;;;;;6.97;1.50;;;9.00;99.90;;;;;;5045523;28;20208;-32
2023/01/15 12:18:06;;;;;;;6.50;1.10;;;9.00;99.90;;;;;;5045838;28;20204;-33
2023/01/15 12:21:13;;;;;;;5.80;1.10;;;9.10;99.90;;;;;;5045683;28;20724;-32
2023/01/15 12:23:49;;;;;;;4.63;1.00;;;9.10;99.90;;;;;;5053227;28;20311;-32
2023/01/15 12:26:38;;;;;;;4.77;1.30;;;9.00;99.90;;;;;;5045542;28;20230;-33
2023/01/15 12:29:22;;;;;;;3.80;0.90;;;9.00;99.90;;;;;;5045903;28;20741;-32
2023/01/15 12:31:58;;;;;;;6.90;1.30;;;9.10;99.90;;;;;;5044451;28;20261;-32
2023/01/15 12:34:33;;;;;;;2.20;0.77;;;9.10;99.90;;;;;;5045708;28;20744;-32
2023/01/15 12:37:11;;;;;;;4.77;1.47;;;9.20;99.90;;;;;;5045948;28;20246;-33
2023/01/15 12:39:51;;;;;;;3.37;0.80;;;9.20;99.90;;;;;;5045323;28;20678;-32
2023/01/15 12:45:19;;;;;;;3.57;0.80;;;9.10;99.90;;;;;;5048266;28;20232;-33
2023/01/15 12:47:55;;;;;;;5.67;1.27;;;9.10;99.90;;;;;;5049076;28;20730;-33
2023/01/15 12:50:47;;;;;;;4.23;1.00;;;9.10;99.90;;;;;;5049083;28;20204;-32
2023/01/15 12:53:28;;;;;;;4.03;0.77;;;9.10;99.90;;;;;;5049243;28;20267;-33
2023/01/15 12:56:11;;;;;;;3.50;1.20;;;9.20;99.90;;;;;;5048629;28;20670;-33
2023/01/15 12:58:44;;;;;;;8.27;1.50;;;9.20;99.90;;;;;;5047610;28;20204;-33
2023/01/15 13:01:11;;;;;;;7.30;1.17;;;9.20;99.90;;;;;;5048542;28;20291;-33
2023/01/15 13:04:06;;;;;;;6.07;1.10;;;9.20;99.90;;;;;;5049289;28;20232;-33
2023/01/15 13:06:37;;;;;;;6.43;0.93;;;9.20;99.90;;;;;;5047450;28;20683;-32
2023/01/15 13:09:24;;;;;;;4.10;1.00;;;9.20;99.90;;;;;;5048743;28;20204;-33
2023/01/15 13:11:54;;;;;;;2.70;0.80;;;9.30;99.90;;;;;;5048716;28;20192;-33
2023/01/15 13:14:22;;;;;;;7.60;1.00;;;9.30;99.90;;;;;;5048567;28;20247;-33
2023/01/15 13:16:49;;;;;;;3.93;1.13;;;9.20;99.90;;;;;;5048209;28;20196;-33
2023/01/15 13:19:48;;;;;;;4.37;1.07;;;9.30;99.90;;;;;;5048906;28;20201;-32
2023/01/15 13:22:27;;;;;;;5.17;1.20;;;9.30;99.90;;;;;;5048172;28;20295;-33
2023/01/15 13:25:06;;;;;;;3.77;1.13;;;9.40;99.90;;;;;;5048515;28;20266;-33
2023/01/15 13:28:05;;;;;;;3.10;1.20;;;9.40;99.90;;;;;;5048244;28;20340;-33
2023/01/15 13:31:17;;;;;;;4.00;0.97;;;9.40;99.90;;;;;;5048406;28;20208;-33
2023/01/15 13:33:51;;;;;;;5.60;1.20;;;9.40;99.90;;;;;;5054463;28;20635;-32
2023/01/15 13:36:29;;;;;;;4.70;1.00;;;9.30;99.90;;;;;;5047748;28;20258;-32
2023/01/15 13:39:02;;;;;;;3.87;0.93;;;9.40;99.90;;;;;;5047571;28;20204;-32
2023/01/15 13:44:30;;;;;;;6.73;1.00;;;9.40;99.90;;;;;;5047540;28;20228;-33
2023/01/15 13:47:04;;;;;;;4.13;0.90;;;9.40;99.90;;;;;;5047392;28;20298;-33
2023/01/15 13:49:37;;;;;;;4.20;0.70;;;9.40;99.90;;;;;;5047506;28;20263;-33
2023/01/15 13:52:21;;;;;;;2.83;0.93;;;9.40;99.90;;;;;;5047391;28;20305;-33
2023/01/15 13:54:52;;;;;;;4.43;0.97;;;9.50;99.90;;;;;;5047113;28;20623;-33
2023/01/15 13:57:47;;;;;;;4.93;0.77;;;9.50;99.90;;;;;;5046686;28;20247;-32
2023/01/15 14:00:30;;;;;;;2.83;0.73;;;9.40;99.90;;;;;;5047121;28;20687;-32
2023/01/15 14:03:03;;;;;;;3.43;0.80;;;9.40;99.90;;;;;;5047269;28;20226;-32
2023/01/15 14:05:32;;;;;;;2.07;0.60;;;9.40;99.90;;;;;;5046906;28;20244;-32
2023/01/15 14:08:01;;;;;;;2.83;1.10;;;9.40;99.90;;;;;;5047095;28;20671;-33
2023/01/15 14:10:31;;;;;;;3.27;0.80;;;9.40;99.90;;;;;;5046942;28;20192;-33
2023/01/15 14:12:58;;;;;;;3.60;0.90;;;9.40;99.90;;;;;;5046679;28;20251;-33
2023/01/15 14:15:54;;;;;;;2.40;0.77;;;9.40;99.90;;;;;;5045816;28;20627;-32
2023/01/15 14:19:07;;;;;;;2.87;0.83;;;9.50;99.90;;;;;;5047592;28;20282;-33
2023/01/15 14:21:43;;;;;;;1.80;0.80;;;9.40;99.90;;;;;;5047151;28;20216;-32